Terminal Aerodrome Forecast
Issued by NWS Cleveland, OH

Home | Current Version | Previous Version | Graphics & Text | Print | Product List | Glossary On
Versions: 1 2 3 4 5 6 7 8 9 10 11 12 13 14 15 16 17
000
FTUS41 KCLE 251120
TAFERI
TAF
KERI 251120Z 2512/2612 23007KT P6SM SCT060
     FM251400 25012G20KT P6SM BKN060
      TEMPO 2514/2517 5SM -SHRA BKN030
     FM251700 25015G22KT P6SM SCT050
     FM260000 23010KT P6SM BKN050=

USA.gov is the U.S. government's official web portal to all federal, state and local government web resources and services.